Latest Weather Observations for The Monument

IDQ60801

Issued at 4:05 am EST Friday 18 April 2014 (issued every 30 minutes, with the page automatically refreshed every 10 minutes)

About weather observations | Map of weather stations | Latest weather observations for QLD | Other Formats
Station Details ID: 037034 Name: THE MONUMENT AIRPORT Lat: -21.81 Lon: 139.93 Height: 288.4 m
Data from the previous 72 hours. | See also: Recent months at The Monument
Date/Time
EST
Temp
°C
App
Temp
°C
Dew
Point
Rel
Hum
%
Delta-T
°C
Wind Press
QNH
hPa
Press
MSL
hPa
Rain
since 9 am
mm
Dir
 
Spd
km/h
Gust
km/h
Spd
kts
Gust
kts
18/04:00am 18.7 - - - - S 11 13 6 7 1016.9 - 0.0
18/03:30am 19.7 - - - - SSE 13 15 7 8 1017.1 - 0.0
18/03:00am 20.0 - - - - SSE 11 13 6 7 1017.2 1015.6 0.0
18/02:30am 20.1 - - - - SE 11 13 6 7 1017.4 - 0.0
18/02:00am 21.4 - - - - SSE 15 20 8 11 1017.5 - 0.0
18/01:30am 22.1 - - - - SSE 17 22 9 12 1017.4 - 0.0
18/01:00am 22.4 - - - - SSE 17 22 9 12 1017.8 - 0.0
18/12:30am 22.4 - - - - S 15 19 8 10 1017.9 - 0.0
18/12:00am 22.8 - - - - S 13 17 7 9 1018.1 1016.6 0.0
 
Date/Time
EST
Temp
°C
App
Temp
°C
Dew
Point
Rel
Hum
%
Delta-T
°C
Wind Press
QNH
hPa
Press
MSL
hPa
Rain
since 9 am
mm
Dir
 
Spd
km/h
Gust
km/h
Spd
kts
Gust
kts
17/11:30pm 23.6 - - - - S 15 20 8 11 1018.0 - 0.0
17/11:00pm 23.9 - - - - S 15 19 8 10 1018.1 - 0.0
17/10:30pm 24.6 - - - - S 15 20 8 11 1018.2 - 0.0
17/10:00pm 25.3 - - - - S 17 22 9 12 1018.0 - 0.0
17/09:30pm 25.9 - - - - S 17 20 9 11 1017.9 - 0.0
17/09:00pm 26.1 - - - - S 15 19 8 10 1017.7 1016.1 0.0
17/08:30pm 26.7 - - - - S 13 17 7 9 1017.4 - 0.0
17/08:00pm 27.5 - - - - S 13 17 7 9 1017.0 - 0.0
17/07:30pm 28.3 - - - - S 17 22 9 12 1016.2 - 0.0
17/07:00pm 29.1 - - - - S 17 22 9 12 1015.7 - 0.0
17/06:30pm 29.6 - - - - S 15 19 8 10 1015.5 - 0.0
17/06:00pm 30.8 - - - - SSE 17 24 9 13 1015.1 1013.6 0.0
17/05:30pm 31.7 - - - - SSW 20 28 11 15 1014.9 - 0.0
17/05:00pm 32.2 - - - - S 17 26 9 14 1014.7 - 0.0
17/04:30pm 32.6 - - - - SSW 13 20 7 11 1014.6 - 0.0
17/04:00pm 32.4 - - - - SSE 17 26 9 14 1014.6 - 0.0
17/03:30pm 32.8 - - - - SSE 19 26 10 14 1014.9 - 0.0
17/03:00pm 33.2 - - - - SSE 9 17 5 9 1015.0 1013.5 0.0
17/02:30pm 32.3 - - - - SE 17 22 9 12 1015.2 - 0.0
17/02:00pm 32.7 - - - - SE 19 22 10 12 1015.5 - 0.0
17/01:30pm 32.6 - - - - ESE 19 26 10 14 1015.9 - 0.0
17/01:00pm 31.6 - - - - ESE 15 24 8 13 1016.4 - 0.0
17/12:30pm 31.0 - - - - ESE 19 26 10 14 1017.1 - 0.0
17/12:00pm 31.2 - - - - ESE 17 26 9 14 1017.5 1015.9 0.0
17/11:30am 30.2 - - - - ESE 19 30 10 16 1018.1 - 0.0
17/11:00am 29.7 - - - - ESE 22 35 12 19 1018.4 - 0.0
17/10:30am 28.5 - - - - ESE 24 35 13 19 1018.8 - 0.0
17/10:00am 27.2 - - - - ESE 24 33 13 18 1018.9 - 0.0
17/09:30am 26.1 - - - - ESE 24 32 13 17 1018.9 - 0.0
17/09:00am 25.3 - - - - ESE 20 28 11 15 1018.8 1017.3 0.0
17/08:30am 23.5 - - - - SE 15 20 8 11 1018.6 - 0.0
17/08:00am 21.5 - - - - SE 11 17 6 9 1018.3 - 0.0
17/07:30am 18.5 - - - - S 7 9 4 5 1018.2 - 0.0
17/07:00am 17.6 - - - - S 9 11 5 6 1018.0 - 0.0
17/06:30am 18.1 - - - - S 11 11 6 6 1017.8 - 0.0
17/06:00am 18.3 - - - - SSE 11 13 6 7 1017.4 1015.8 0.0
17/05:30am 18.9 - - - - S 9 11 5 6 1017.1 - 0.0
17/05:00am 19.0 - - - - S 7 11 4 6 1016.7 - 0.0
17/04:30am 19.5 - - - - S 11 13 6 7 1016.5 - 0.0
17/04:00am 19.7 - - - - S 9 13 5 7 1016.4 - 0.0
17/03:30am 19.9 - - - - SSE 9 13 5 7 1016.4 - 0.0
17/03:00am 20.9 - - - - S 13 17 7 9 1016.2 1014.7 0.0
17/02:30am 21.3 - - - - S 13 17 7 9 1016.3 - 0.0
17/02:00am 21.7 - - - - S 13 17 7 9 1016.5 - 0.0
17/01:30am 22.0 - - - - S 13 17 7 9 1016.6 - 0.0
17/01:00am 21.8 - - - - S 11 15 6 8 1016.6 - 0.0
17/12:30am 22.8 - - - - S 11 13 6 7 1016.7 - 0.0
17/12:00am 23.8 - - - - SSE 15 20 8 11 1016.6 1015.1 0.0
 
Date/Time
EST
Temp
°C
App
Temp
°C
Dew
Point
Rel
Hum
%
Delta-T
°C
Wind Press
QNH
hPa
Press
MSL
hPa
Rain
since 9 am
mm
Dir
 
Spd
km/h
Gust
km/h
Spd
kts
Gust
kts
16/11:30pm 24.5 - - - - S 15 20 8 11 1016.6 - 0.0
16/11:00pm 24.7 - - - - S 15 20 8 11 1016.5 - 0.0
16/10:30pm 25.6 - - - - S 17 22 9 12 1016.5 - 0.0
16/10:00pm 26.2 - - - - S 17 22 9 12 1016.3 - 0.0
16/09:30pm 26.7 - - - - S 15 22 8 12 1016.1 - 0.0
16/09:00pm 27.1 - - - - S 15 20 8 11 1015.7 1014.2 0.0
16/08:30pm 27.7 - - - - S 17 22 9 12 1015.4 - 0.0
16/08:00pm 28.2 - - - - S 17 24 9 13 1015.1 - 0.0
16/07:30pm 28.9 - - - - S 19 24 10 13 1014.7 - 0.0
16/07:00pm 29.5 - - - - S 17 22 9 12 1014.3 - 0.0
16/06:30pm 30.2 - - - - S 20 28 11 15 1014.0 - 0.0
16/06:00pm 31.2 - - - - S 22 30 12 16 1013.7 1012.1 0.0
16/05:30pm 31.9 - - - - S 20 32 11 17 1013.4 - 0.0
16/05:00pm 32.3 - - - - S 17 22 9 12 1013.3 - 0.0
16/04:30pm 33.0 - - - - S 20 30 11 16 1013.0 - 0.0
16/04:00pm 33.1 - - - - S 20 30 11 16 1013.1 - 0.0
16/03:30pm 33.2 - - - - S 22 28 12 15 1013.3 - 0.0
16/03:00pm 33.3 - - - - S 19 28 10 15 1013.4 1011.8 0.0
16/02:30pm 32.9 - - - - S 17 26 9 14 1013.8 - 0.0
16/02:00pm 32.0 - - - - S 15 32 8 17 1014.1 - 0.0
16/01:30pm 32.8 - - - - ESE 13 26 7 14 1014.5 - 0.0
16/01:00pm 31.4 - - - - SE 15 32 8 17 1014.9 - 0.0
16/12:30pm 31.7 - - - - SSE 20 28 11 15 1015.5 - 0.0
16/12:00pm 30.8 - - - - SSE 17 26 9 14 1016.0 1014.5 0.0
16/11:30am 29.6 - - - - SSE 19 32 10 17 1016.4 - 0.0
16/11:00am 28.9 - - - - SSE 19 26 10 14 1016.9 - 0.0
16/10:30am 28.2 - - - - SE 17 24 9 13 1017.2 - 0.0
16/10:00am 26.4 - - - - SE 19 26 10 14 1017.2 - 0.0
16/09:30am 25.6 - - - - SSE 19 26 10 14 1017.1 - 0.0
16/09:00am 24.2 - - - - SSE 17 24 9 13 1017.0 1015.4 0.0
16/08:30am 22.9 - - - - SSE 19 26 10 14 1016.7 - 0.0
16/08:00am 21.6 - - - - S 17 22 9 12 1016.4 - 0.0
16/07:30am 20.5 - - - - S 13 19 7 10 1016.4 - 0.0
16/07:00am 19.9 - - - - S 13 17 7 9 1016.0 - 0.0
16/06:30am 20.3 - - - - S 15 20 8 11 1015.8 - 0.0
16/06:00am 20.6 - - - - S 15 20 8 11 1015.4 1013.9 0.0
16/05:30am 20.8 - - - - S 15 20 8 11 1015.3 - 0.0
16/05:00am 21.1 - - - - S 15 19 8 10 1015.1 - 0.0
16/04:30am 21.6 - - - - S 15 19 8 10 1014.9 - 0.0
16/04:00am 22.2 - - - - S 17 22 9 12 1014.8 - 0.0
16/03:30am 22.7 - - - - S 19 26 10 14 1014.8 - 0.0
16/03:00am 23.0 - - - - S 19 24 10 13 1014.9 1013.4 0.0
16/02:30am 23.6 - - - - SSE 19 24 10 13 1015.0 - 0.0
16/02:00am 24.0 - - - - S 20 28 11 15 1015.3 - 0.0
16/01:30am 24.6 - - - - S 20 28 11 15 1015.3 - 0.0
16/01:00am 25.0 - - - - SSE 20 32 11 17 1015.3 - 0.0
16/12:30am 25.3 - - - - SSE 19 28 10 15 1015.3 - 0.0
16/12:00am 26.0 - - - - SSE 24 33 13 18 1015.3 1013.8 0.0
 
Date/Time
EST
Temp
°C
App
Temp
°C
Dew
Point
Rel
Hum
%
Delta-T
°C
Wind Press
QNH
hPa
Press
MSL
hPa
Rain
since 9 am
mm
Dir
 
Spd
km/h
Gust
km/h
Spd
kts
Gust
kts
15/11:30pm 26.2 - - - - S 22 32 12 17 1015.3 - 0.0
15/11:00pm 26.6 - - - - S 20 32 11 17 1015.1 - 0.0
15/10:30pm 26.8 - - - - S 17 24 9 13 1015.1 - 0.0
15/10:00pm 27.0 - - - - S 15 20 8 11 1015.2 - 0.0
15/09:30pm 27.5 - - - - S 19 24 10 13 1014.9 - 0.0
15/09:00pm 28.0 - - - - S 17 24 9 13 1014.7 1013.1 0.0
15/08:30pm 28.3 - - - - S 15 20 8 11 1014.4 - 0.0
15/08:00pm 29.0 - - - - S 19 24 10 13 1014.0 - 0.0
15/07:30pm 29.5 - - - - S 19 28 10 15 1013.5 - 0.0
15/07:00pm 30.0 - - - - S 22 30 12 16 1012.9 - 0.0
15/06:30pm 30.6 - - - - S 22 32 12 17 1012.5 - 0.0
15/06:00pm 31.6 - - - - SSW 19 24 10 13 1012.3 1010.8 0.0
15/05:30pm 32.3 - - - - S 19 24 10 13 1012.1 - 0.0
15/05:00pm 32.8 - - - - SSW 19 24 10 13 1011.9 - 0.0
15/04:30pm 32.8 - - - - S 17 24 9 13 1011.8 - 0.0
15/04:00pm 33.6 - - - - S 15 20 8 11 1011.7 - 0.0
15/03:30pm 33.0 - - - - SSW 15 20 8 11 1012.0 - 0.0
15/03:00pm 33.1 - - - - S 7 20 4 11 1012.3 1010.8 0.0
15/02:30pm 33.0 - - - - E 11 20 6 11 1012.5 - 0.0
15/02:00pm 32.8 - - - - S 17 26 9 14 1012.8 - 0.0
15/01:30pm 32.8 - - - - S 19 28 10 15 1013.1 - 0.0
15/01:00pm 31.5 - - - - SSE 15 20 8 11 1013.6 - 0.0
15/12:30pm 31.1 - - - - S 15 24 8 13 1014.1 - 0.0
15/12:00pm 30.4 - - - - SSE 15 24 8 13 1014.6 1013.0 0.0
15/11:30am 29.9 - - - - SSE 17 24 9 13 1015.0 - 0.0
15/11:00am 28.2 - - - - S 15 24 8 13 1015.3 - 0.0
15/10:30am 26.6 - - - - S 15 20 8 11 1015.6 - 0.0
15/10:00am 25.7 - - - - S 13 19 7 10 1015.7 - 0.0
15/09:30am 25.0 - - - - S 15 19 8 10 1015.9 - 0.0
15/09:00am 23.6 - - - - S 17 24 9 13 1015.6 1014.1 0.0
15/08:30am 23.7 - - - - S 15 24 8 13 1015.3 - 0.0
15/08:00am 22.1 - - - - S 13 19 7 10 1014.8 - 0.0
15/07:30am 21.7 - - - - S 11 15 6 8 1014.4 - 0.0
15/07:00am 21.0 - - - - S 9 11 5 6 1014.2 - 0.0
15/06:30am 20.9 - - - - SSW 9 13 5 7 1014.0 - 0.0
15/06:00am 20.7 - - - - S 9 11 5 6 1013.7 1012.1 0.0
15/05:30am 20.8 - - - - S 9 13 5 7 1013.5 - 0.0
15/05:00am 20.8 - - - - S 7 9 4 5 1013.3 - 0.0
15/04:30am 21.3 - - - - S 4 7 2 4 1013.1 - 0.0

Other Formats:

Comma delimited format used in spreadsheet applications
http://www.bom.gov.au/fwo/IDQ60801/IDQ60801.94336.axf

JavaScript Object Notation format (JSON) in row-major order
http://www.bom.gov.au/fwo/IDQ60801/IDQ60801.94336.json